• Join FlightAware (Why Join?)
  • Login
  • US Flag 
10:00AM EDT


 

Airport Tracker/Info


-or-


 

Live Flight TrackerFlight Track Log ✈ UAL33 ✈ 21-Jun-2013 ✈ KIAH - KORD

Flight Track Log - Related Links

Times and Time Zones

All times are in EDT time to prevent confusion due to time zone crossing. See the UAL33 flight status page for this flight to view local times or setup timezone preferences in your user account.

Time Position Orientation Groundspeed Altitude Reporting Facility
EDT Latitude Longitude Course Direction KTS MPH feet Rate Location/Type
06:53PM 29.9778 -95.2979 98° East 160 184 700  Level FlightAware ADS-B
06:54PM 29.9783 -95.2952 78° East 163 188 800 1,680 Climbing FlightAware ADS-B
06:54PM 29.9792 -95.2921 71° East 166 191 900 2,520 Climbing FlightAware ADS-B
06:54PM 29.9808 -95.2889 60° Northeast 170 196 1,100 2,220 Climbing FlightAware ADS-B
06:54PM 29.9828 -95.2862 49° Northeast 178 205 1,200 1,500 Climbing FlightAware ADS-B
06:54PM 29.9851 -95.2839 41° Northeast 184 212 1,300 1,500 Climbing FlightAware ADS-B
06:54PM 29.9883 -95.2816 32° Northeast 192 221 1,400 1,200 Climbing FlightAware ADS-B
06:54PM 29.9932 -95.2789 26° Northeast 203 234 1,500 1,500 Climbing FlightAware ADS-B
06:54PM 30.0069 -95.2726 22° Northeast 227 261 1,900 1,500 Climbing FlightAware ADS-B
06:54PM 30.0130 -95.2704 17° North 237 273 2,000 1,080 Climbing FlightAware ADS-B
06:54PM 30.0180 -95.2695 North 244 281 2,100 1,380 Climbing FlightAware ADS-B
06:54PM 30.0274 -95.2688 North 258 297 2,300 2,040 Climbing FlightAware ADS-B
06:55PM 30.0465 -95.2681 North 275 316 2,900 2,640 Climbing FlightAware ADS-B
06:55PM 30.0637 -95.2671 North 280 322 3,600 3,540 Climbing FlightAware ADS-B
06:56PM 30.1260 -95.2622 North 283 326 6,500 3,120 Climbing FlightAware ADS-B
06:57PM 30.2530 -95.2531 North 327 376 10,900 2,820 Climbing FlightAware ADS-B
06:58PM 30.2942 -95.2501 North 339 390 12,200 3,060 Climbing FlightAware ADS-B
06:58PM 30.3444 -95.2466 North 350 403 13,900 3,060 Climbing FlightAware ADS-B
06:59PM 30.4456 -95.2401 North 367 422 16,900 2,760 Climbing FlightAware ADS-B
07:01PM 30.5968 -95.2278 North 384 442 20,800 2,640 Climbing FlightAware ADS-B
07:01PM 30.6293 -95.2293 355° North 387 445 21,600 2,580 Climbing FlightAware ADS-B
07:01PM 30.6381 -95.2312 349° North 388 447 21,800 2,040 Climbing FlightAware ADS-B
07:04PM 30.8961 -95.3188 344° North 425 489 26,700 2,040 Climbing FlightAware ADS-B
07:04PM 30.9537 -95.3384 344° North 432 497 27,700 1,860 Climbing FlightAware ADS-B
07:05PM 31.0727 -95.3787 344° North 448 516 29,500 1,800 Climbing FlightAware ADS-B
07:06PM 31.1342 -95.3996 344° North 453 521 30,500 1,980 Climbing FlightAware ADS-B
07:06PM 31.1964 -95.4209 344° North 452 520 31,600 1,140 Climbing FlightAware ADS-B
07:09PM 31.5230 -95.5320 343° North 497 572 34,400 1,080 Climbing FlightAware
07:10PM 31.7050 -95.5936 344° North 506 582 36,000 1,380 Climbing FlightAware ADS-B
07:11PM 31.7744 -95.6173 344° North 503 579 36,800 1,320 Climbing FlightAware ADS-B
07:11PM 31.8633 -95.6479 344° North 503 579 37,600 1,140 Climbing FlightAware ADS-B
07:12PM 31.9363 -95.6730 344° North 497 572 38,200 900 Climbing FlightAware ADS-B
07:12PM 32.0047 -95.6966 344° North 497 572 38,600 360 Climbing FlightAware ADS-B
07:14PM 32.2220 -95.7720 343° North 501 577 39,000 60 Climbing FlightAware
07:16PM 32.4460 -95.8500 344° North 500 575 39,000  Level FlightAware
07:16PM 32.5530 -95.8870 344° North 499 574 39,000  Level FlightAware
07:17PM 32.6470 -95.9200 344° North 500 575 39,000  Level FlightAware
07:18PM 32.7400 -95.9520 344° North 498 573 39,000  Level FlightAware
07:18PM 32.8270 -95.9830 343° North 498 573 39,000  Level FlightAware
07:19PM 32.9130 -96.0130 344° North 498 573 39,000  Level FlightAware
07:20PM 33.0000 -96.0430 344° North 499 574 39,000  Level FlightAware
07:21PM 33.1120 -96.0830 343° North 499 574 39,000  Level FlightAware
07:21PM 33.2010 -96.1140 344° North 501 577 39,000  Level FlightAware
07:22PM 33.2930 -96.1470 343° North 501 577 39,000  Level FlightAware
07:23PM 33.3840 -96.1790 344° North 502 578 39,000  Level FlightAware
07:23PM 33.4790 -96.2130 343° North 501 577 39,000  Level FlightAware
07:24PM 33.5650 -96.2270 352° North 509 586 39,000  Level FlightAware
07:24PM 33.6160 -96.2220 North 513 590 39,000  Level FlightAware
07:25PM 33.7420 -96.2010 North 513 590 39,000  Level FlightAware
07:26PM 33.8430 -96.1840 North 515 593 39,000  Level FlightAware
07:27PM 33.9480 -96.1670 North 521 600 39,000  Level FlightAware
07:27PM 34.0480 -96.1510 North 521 600 39,000  Level FlightAware
07:28PM 34.1430 -96.1350 North 520 598 39,000 240 Level FlightAware
07:29PM 34.2420 -96.1190 North 518 596 39,400 660 Climbing FlightAware
07:29PM 34.3480 -96.1010 North 513 590 40,000 660 Climbing FlightAware
07:30PM 34.4420 -96.0860 North 511 588 40,400 480 Climbing FlightAware
07:31PM 34.5360 -96.0700 North 513 590 40,700 420 Climbing FlightAware
07:31PM 34.6380 -96.0530 North 515 593 41,000 180 Climbing FlightAware
07:32PM 34.7400 -96.0360 North 518 596 41,000  Level FlightAware
07:33PM 34.8440 -96.0180 North 519 597 41,000  Level FlightAware
07:34PM 34.9380 -96.0030 North 519 597 41,000  Level FlightAware
07:34PM 35.0360 -95.9860 North 519 597 41,000  Level FlightAware
07:35PM 35.1200 -95.9720 North 521 600 41,000  Level FlightAware
07:36PM 35.2020 -95.9600 North 521 600 41,000  Level FlightAware
07:36PM 35.2950 -95.9460 North 521 600 41,000  Level FlightAware
07:37PM 35.3690 -95.9350 North 521 600 41,000  Level FlightAware
07:38PM 35.4460 -95.9230 North 521 600 41,000  Level FlightAware
07:39PM 35.6450 -95.8830 North 506 582 41,000  Level FlightAware
07:39PM 35.7390 -95.8670 North 511 588 41,000  Level FlightAware
07:40PM 35.8260 -95.8520 North 517 595 41,000  Level FlightAware
07:41PM 35.9680 -95.8280 North 519 597 41,000  Level FlightAware
07:41PM 36.0600 -95.8120 North 519 597 41,000  Level FlightAware
07:42PM 36.1540 -95.7970 North 520 598 41,000  Level FlightAware
07:43PM 36.2700 -95.7640 13° North 520 598 41,000  Level FlightAware
07:44PM 36.3700 -95.7310 15° North 521 600 41,000  Level FlightAware
07:44PM 36.4340 -95.7100 15° North 522 601 41,000  Level FlightAware
07:45PM 36.6110 -95.6520 15° North 522 601 41,000  Level FlightAware
07:46PM 36.7000 -95.6230 15° North 522 601 41,000  Level FlightAware
07:47PM 36.7970 -95.5910 15° North 522 601 41,000  Level FlightAware
07:47PM 36.9050 -95.5550 15° North 523 602 41,000  Level FlightAware
07:48PM 37.0060 -95.5210 15° North 522 601 41,000  Level FlightAware
07:49PM 37.1000 -95.4900 15° North 521 600 41,000  Level FlightAware
07:50PM 37.1860 -95.4480 21° North 523 602 41,000  Level FlightAware
07:50PM 37.2640 -95.3790 35° Northeast 524 603 41,000  Level FlightAware
07:51PM 37.3470 -95.2990 37° Northeast 524 603 41,000  Level FlightAware
07:52PM 37.4380 -95.2100 38° Northeast 524 603 41,000  Level FlightAware
07:52PM 37.5180 -95.1320 38° Northeast 522 601 41,000  Level FlightAware
07:53PM 37.6240 -95.0270 38° Northeast 524 603 41,000  Level FlightAware
07:54PM 37.6990 -94.9530 38° Northeast 524 603 41,000  Level FlightAware
07:55PM 37.7880 -94.8660 38° Northeast 522 601 41,000  Level FlightAware
07:55PM 37.8270 -94.8270 38° Northeast 519 597 41,000  Level FlightAware
07:56PM 37.9330 -94.7290 36° Northeast 516 594 41,000  Level FlightAware
07:57PM 38.0070 -94.6600 36° Northeast 514 592 41,000  Level FlightAware
07:57PM 38.0950 -94.5780 36° Northeast 514 592 41,000  Level FlightAware
07:58PM 38.1760 -94.5020 36° Northeast 514 592 41,000  Level FlightAware
07:59PM 38.2520 -94.4300 37° Northeast 514 592 41,000  Level FlightAware
08:00PM 38.3390 -94.3470 37° Northeast 515 593 41,000  Level FlightAware
08:00PM 38.4150 -94.2760 36° Northeast 513 590 41,000  Level FlightAware
08:01PM 38.4950 -94.1990 37° Northeast 511 588 41,000  Level FlightAware
08:02PM 38.5720 -94.1260 37° Northeast 508 585 41,000  Level FlightAware
08:02PM 38.6470 -94.0550 36° Northeast 506 582 41,000  Level FlightAware
08:03PM 38.7330 -93.9720 37° Northeast 507 583 41,000  Level FlightAware
08:04PM 38.8070 -93.9010 37° Northeast 504 580 41,000  Level FlightAware
08:04PM 38.8900 -93.8210 37° Northeast 505 581 41,000  Level FlightAware
08:05PM 38.9690 -93.7450 37° Northeast 508 585 41,000  Level FlightAware
08:06PM 39.0430 -93.6730 37° Northeast 512 589 41,000  Level FlightAware
08:06PM 39.1220 -93.5960 37° Northeast 516 594 41,000  Level FlightAware
08:07PM 39.2090 -93.5090 38° Northeast 515 593 41,000  Level FlightAware
08:08PM 39.2760 -93.4180 46° Northeast 518 596 41,000  Level FlightAware
08:09PM 39.3430 -93.3150 50° Northeast 520 598 41,000  Level FlightAware
08:09PM 39.4020 -93.2260 49° Northeast 520 598 41,000  Level FlightAware
08:10PM 39.4700 -93.1210 50° Northeast 520 598 41,000  Level FlightAware
08:11PM 39.5330 -93.0240 50° Northeast 519 597 41,000  Level FlightAware
08:12PM 39.6240 -92.8820 50° Northeast 519 597 41,000  Level FlightAware
08:13PM 39.7130 -92.7440 50° Northeast 520 598 41,000  Level FlightAware
08:13PM 39.7820 -92.6360 50° Northeast 517 595 41,000  Level FlightAware
08:14PM 39.8450 -92.5380 50° Northeast 517 595 41,000  Level FlightAware
08:15PM 39.9130 -92.4300 51° Northeast 515 593 41,000  Level FlightAware
08:15PM 39.9690 -92.3410 51° Northeast 516 594 41,000  Level FlightAware
08:16PM 40.0410 -92.2270 50° Northeast 516 594 41,000  Level FlightAware
08:17PM 40.1080 -92.1210 50° Northeast 518 596 41,000  Level FlightAware
08:18PM 40.1900 -91.9900 51° Northeast 521 600 41,000 -120 Level FlightAware
08:19PM 40.2480 -91.8970 51° Northeast 513 590 40,900 -1,080 Descending FlightAware
08:19PM 40.3180 -91.7850 51° Northeast 507 583 39,500 -1,920 Descending FlightAware
08:20PM 40.3750 -91.6920 51° Northeast 505 581 38,200 -1,560 Descending FlightAware
08:21PM 40.4360 -91.5940 51° Northeast 506 582 37,400 -600 Descending FlightAware
08:21PM 40.4820 -91.5190 51° Northeast 506 582 37,400 -3,240 Level FlightAware
08:22PM 40.5560 -91.3860 54° Northeast 525 604 33,200 -2,940 Descending FlightAware
08:23PM 40.6070 -91.2490 64° Northeast 507 583 33,000 -180 Descending FlightAware
08:23PM 40.6420 -91.1470 66° East 512 589 33,000  Level FlightAware
08:24PM 40.6860 -91.0180 66° East 519 597 33,000 -900 Level FlightAware
08:26PM 40.7670 -90.7770 66° East 505 581 31,000 -1,320 Descending FlightAware
08:26PM 40.8200 -90.6200 66° East 510 587 30,000 -960 Descending FlightAware
08:27PM 40.8570 -90.5090 66° East 510 587 29,700 -1,500 Descending FlightAware
08:28PM 40.8990 -90.3820 66° East 514 592 27,900 -1,740 Descending FlightAware
08:29PM 40.9390 -90.2610 66° East 519 597 27,300 -900 Descending FlightAware
08:29PM 40.9810 -90.1370 66° East 514 592 26,700 -840 Descending FlightAware
08:30PM 41.0220 -90.0110 67° East 510 587 26,100 -540 Descending FlightAware
08:31PM 41.0500 -89.9270 66° East 509 586 26,000 -900 Descending FlightAware
08:31PM 41.0910 -89.8000 67° East 497 572 25,000 -1,080 Descending FlightAware
08:32PM 41.1350 -89.6650 67° East 495 570 24,400 -960 Descending FlightAware
08:33PM 41.1730 -89.5560 65° Northeast 481 554 23,600 -1,860 Descending FlightAware
08:33PM 41.2170 -89.4480 62° Northeast 467 537 21,900 -2,340 Descending FlightAware
08:34PM 41.2580 -89.3450 62° Northeast 452 520 20,400 -2,160 Descending FlightAware
08:35PM 41.2970 -89.2480 62° Northeast 442 509 19,000 -2,220 Descending FlightAware
08:36PM 41.3400 -89.1410 62° Northeast 443 510 17,300 -2,280 Descending FlightAware
08:36PM 41.3800 -89.0420 62° Northeast 431 496 15,800 -2,160 Descending FlightAware
08:37PM 41.4150 -88.9540 62° Northeast 421 484 14,500 -1,980 Descending FlightAware
08:38PM 41.4570 -88.8470 62° Northeast 419 482 13,000 -1,980 Descending FlightAware
08:38PM 41.4940 -88.7530 62° Northeast 416 479 11,600 -1,560 Descending FlightAware
08:39PM 41.5210 -88.6850 62° Northeast 399 459 10,900 -540 Descending FlightAware
08:40PM 41.5640 -88.5780 62° Northeast 343 395 10,900 -300 Level FlightAware
08:40PM 41.5940 -88.5030 62° Northeast 317 365 10,500 -840 Descending FlightAware
08:41PM 41.6260 -88.4380 57° Northeast 307 353 9,800 -1,080 Descending FlightAware
08:42PM 41.6490 -88.3980 52° Northeast 305 351 9,300 -1,140 Descending FlightAware
08:42PM 41.6650 -88.3760 46° Northeast 299 344 9,000 -1,260 Descending FlightAware
08:42PM 41.6800 -88.3650 29° Northeast 292 336 8,700 -1,440 Descending FlightAware
08:43PM 41.7170 -88.3450 22° Northeast 294 338 8,000 -1,380 Descending FlightAware
08:43PM 41.7540 -88.3370 North 284 327 7,400 -1,260 Descending FlightAware
08:43PM 41.7780 -88.3350 North 284 327 7,000 -600 Descending FlightAware
08:44PM 41.8210 -88.3320 North 258 297 6,900 -240 Descending FlightAware
08:44PM 41.8570 -88.3290 North 242 278 6,800 -540 Descending FlightAware
08:45PM 41.8910 -88.3260 North 242 278 6,400 -1,020 Descending FlightAware
08:46PM 41.9290 -88.3180 North 249 287 5,700 -1,260 Descending FlightAware
08:46PM 41.9400 -88.3030 45° Northeast 254 292 5,400 -1,440 Descending FlightAware
08:46PM 41.9540 -88.2650 64° Northeast 258 297 4,800 -1,380 Descending FlightAware
08:47PM 41.9670 -88.2180 70° East 254 292 4,100 -900 Descending FlightAware
08:47PM 41.9680 -88.1560 89° East 251 289 3,800 -660 Descending FlightAware
08:48PM 41.9680 -88.1340 90° East 250 288 3,500 -1,200 Descending FlightAware
08:48PM 41.9690 -88.0780 89° East 208 239 2,700 -1,200 Descending FlightAware
08:49PM 41.9690 -88.0400 90° East 191 220 2,100 -1,080 Descending FlightAware
08:49PM 41.9690 -87.9990 90° East 155 178 1,500 -840 Descending FlightAware
08:50PM 41.9690 -87.9740 90° East 144 166 1,200 -780 Descending FlightAware
08:50PM 41.9690 -87.9460 90° East 143 165 800 -480 Descending FlightAware
08:51PM 41.9690 -87.9070 90° East 145 167 600 -300 Descending FlightAware